Time,TemperatureF,DewpointF,PressureIn,WindDirection,WindDirectionDegrees,WindSpeedMPH,WindSpeedGustMPH,Humidity,HourlyPrecipIn,Conditions,Clouds,dailyrainin,SoftwareType,DateUTC
2013-06-09 00:02:00,57.0,49.0,-100.00,ESE,109,2.0,3.0,74,-99.99,,,-99.99,,2013-06-09 07:02:00,
2013-06-09 00:12:00,57.0,48.0,-100.00,SE,128,1.0,2.0,71,-99.99,,,-99.99,,2013-06-09 07:12:00,
2013-06-09 00:21:00,56.0,47.0,-100.00,SE,125,1.0,2.0,73,-99.99,,,-99.99,,2013-06-09 07:21:00,
2013-06-09 00:32:00,56.0,47.0,-100.00,SE,124,2.0,2.0,73,-99.99,,,-99.99,,2013-06-09 07:32:00,
2013-06-09 00:42:00,56.0,47.0,-100.00,SE,133,2.0,3.0,73,-99.99,,,-99.99,,2013-06-09 07:42:00,
2013-06-09 00:52:00,55.0,47.0,-100.00,ESE,117,2.0,3.0,74,-99.99,,,-99.99,,2013-06-09 07:52:00,
2013-06-09 01:02:00,55.0,45.0,-100.00,ESE,115,2.0,3.0,69,-99.99,,,-99.99,,2013-06-09 08:02:00,
2013-06-09 01:12:00,54.0,45.0,-100.00,SE,142,2.0,3.0,71,-99.99,,,-99.99,,2013-06-09 08:12:00,
2013-06-09 01:22:00,55.0,41.0,-100.00,East,99,2.0,2.0,59,-99.99,,,-99.99,,2013-06-09 08:22:00,
2013-06-09 01:32:00,54.0,38.0,-100.00,East,83,2.0,3.0,55,-99.99,,,-99.99,,2013-06-09 08:32:00,
2013-06-09 01:42:00,54.0,37.0,-100.00,ESE,106,2.0,3.0,53,-99.99,,,-99.99,,2013-06-09 08:42:00,
2013-06-09 01:52:00,55.0,37.0,-100.00,ESE,112,2.0,2.0,50,-99.99,,,-99.99,,2013-06-09 08:52:00,
2013-06-09 02:02:00,54.0,39.0,-100.00,ESE,119,2.0,3.0,56,-99.99,,,-99.99,,2013-06-09 09:02:00,
2013-06-09 02:12:00,53.0,36.0,-100.00,ESE,102,2.0,3.0,52,-99.99,,,-99.99,,2013-06-09 09:12:00,
2013-06-09 02:22:00,52.0,34.0,-100.00,ESE,111,1.0,2.0,51,-99.99,,,-99.99,,2013-06-09 09:22:00,
2013-06-09 02:33:00,52.0,35.0,-100.00,ESE,120,0.0,1.0,52,-99.99,,,-99.99,,2013-06-09 09:33:00,
2013-06-09 02:43:00,52.0,37.0,-100.00,SE,133,2.0,3.0,57,-99.99,,,-99.99,,2013-06-09 09:43:00,
2013-06-09 02:52:00,51.0,35.0,-100.00,ESE,112,2.0,3.0,55,-99.99,,,-99.99,,2013-06-09 09:52:00,
2013-06-09 03:03:00,52.0,33.0,-100.00,ESE,102,2.0,3.0,48,-99.99,,,-99.99,,2013-06-09 10:03:00,
2013-06-09 03:12:00,52.0,31.0,-100.00,East,98,2.0,3.0,45,-99.99,,,-99.99,,2013-06-09 10:12:00,
2013-06-09 03:22:00,52.0,31.0,-100.00,East,95,2.0,3.0,45,-99.99,,,-99.99,,2013-06-09 10:22:00,
2013-06-09 03:32:00,51.0,30.0,-100.00,ESE,111,2.0,3.0,45,-99.99,,,-99.99,,2013-06-09 10:32:00,
2013-06-09 03:42:00,50.0,32.0,-100.00,SE,125,1.0,2.0,49,-99.99,,,-99.99,,2013-06-09 10:42:00,
2013-06-09 03:52:00,50.0,31.0,-100.00,ESE,120,1.0,2.0,48,-99.99,,,-99.99,,2013-06-09 10:52:00,
2013-06-09 04:02:00,49.0,32.0,-100.00,SE,131,2.0,3.0,51,-99.99,,,-99.99,,2013-06-09 11:02:00,
2013-06-09 04:12:00,50.0,31.0,-100.00,SE,139,1.0,2.0,48,-99.99,,,-99.99,,2013-06-09 11:12:00,
2013-06-09 04:22:00,50.0,29.0,-100.00,East,98,2.0,3.0,45,-99.99,,,-99.99,,2013-06-09 11:22:00,
2013-06-09 04:32:00,50.0,28.0,-100.00,ENE,60,1.0,3.0,42,-99.99,,,-99.99,,2013-06-09 11:32:00,
2013-06-09 04:42:00,49.0,29.0,-100.00,ESE,121,1.0,2.0,46,-99.99,,,-99.99,,2013-06-09 11:42:00,
2013-06-09 04:52:00,47.0,30.0,-100.00,SE,133,2.0,3.0,51,-99.99,,,-99.99,,2013-06-09 11:52:00,
2013-06-09 05:02:00,47.0,31.0,-100.00,ESE,120,2.0,4.0,53,-99.99,,,-99.99,,2013-06-09 12:02:00,
2013-06-09 05:12:00,47.0,30.0,-100.00,ESE,116,2.0,3.0,52,-99.99,,,-99.99,,2013-06-09 12:12:00,
2013-06-09 05:22:00,47.0,28.0,-100.00,ESE,113,2.0,3.0,48,-99.99,,,-99.99,,2013-06-09 12:22:00,
2013-06-09 05:32:00,47.0,26.0,-100.00,East,82,2.0,3.0,44,-99.99,,,-99.99,,2013-06-09 12:32:00,
2013-06-09 05:42:00,48.0,24.0,-100.00,ENE,75,2.0,3.0,39,-99.99,,,-99.99,,2013-06-09 12:42:00,
2013-06-09 05:52:00,47.0,26.0,-100.00,ESE,118,2.0,4.0,43,-99.99,,,-99.99,,2013-06-09 12:52:00,
2013-06-09 06:02:00,47.0,26.0,-100.00,SSW,192,1.0,3.0,43,-99.99,,,-99.99,,2013-06-09 13:02:00,
2013-06-09 06:12:00,45.0,27.0,-100.00,SE,129,1.0,3.0,49,-99.99,,,-99.99,,2013-06-09 13:12:00,
2013-06-09 06:22:00,45.0,26.0,-100.00,ESE,113,1.0,3.0,47,-99.99,,,-99.99,,2013-06-09 13:22:00,
2013-06-09 06:32:00,47.0,27.0,-100.00,ESE,119,2.0,4.0,46,-99.99,,,-99.99,,2013-06-09 13:32:00,
2013-06-09 06:42:00,49.0,26.0,-100.00,SE,140,1.0,3.0,41,-99.99,,,-99.99,,2013-06-09 13:42:00,
2013-06-09 06:52:00,49.0,26.0,-100.00,SE,140,1.0,3.0,41,-99.99,,,-99.99,,2013-06-09 13:52:00,
2013-06-09 07:02:00,51.0,29.0,-100.00,ESE,103,0.0,1.0,42,-99.99,,,-99.99,,2013-06-09 14:02:00,
2013-06-09 07:12:00,53.0,25.0,-100.00,NE,48,1.0,2.0,34,-99.99,,,-99.99,,2013-06-09 14:12:00,
2013-06-09 07:22:00,55.0,26.0,-100.00,East,91,1.0,2.0,33,-99.99,,,-99.99,,2013-06-09 14:22:00,
2013-06-09 07:32:00,56.0,26.0,-100.00,NNE,12,1.0,2.0,31,-99.99,,,-99.99,,2013-06-09 14:32:00,
2013-06-09 07:42:00,58.0,27.0,-100.00,East,84,1.0,3.0,30,-99.99,,,-99.99,,2013-06-09 14:42:00,
2013-06-09 07:52:00,60.0,28.0,-100.00,West,274,1.0,3.0,30,-99.99,,,-99.99,,2013-06-09 14:52:00,
2013-06-09 08:02:00,60.0,28.0,-100.00,ESE,110,1.0,2.0,30,-99.99,,,-99.99,,2013-06-09 15:02:00,
2013-06-09 08:11:00,64.0,28.0,-100.00,ESE,112,1.0,3.0,26,-99.99,,,-99.99,,2013-06-09 15:11:00,
2013-06-09 08:22:00,65.0,29.0,-100.00,West,260,1.0,3.0,26,-99.99,,,-99.99,,2013-06-09 15:22:00,
2013-06-09 08:32:00,67.0,29.0,-100.00,West,264,1.0,2.0,24,-99.99,,,-99.99,,2013-06-09 15:32:00,
2013-06-09 08:43:00,69.0,32.0,-100.00,West,277,1.0,3.0,25,-99.99,,,-99.99,,2013-06-09 15:43:00,
2013-06-09 08:53:00,72.0,33.0,-100.00,West,266,1.0,4.0,24,-99.99,,,-99.99,,2013-06-09 15:53:00,
2013-06-09 09:03:00,74.0,30.0,-100.00,West,269,1.0,3.0,20,-99.99,,,-99.99,,2013-06-09 16:03:00,
2013-06-09 09:13:00,77.0,29.0,-100.00,WNW,287,2.0,5.0,17,-99.99,,,-99.99,,2013-06-09 16:13:00,
2013-06-09 09:23:00,80.0,28.0,-100.00,WNW,302,1.0,3.0,15,-99.99,,,-99.99,,2013-06-09 16:23:00,
2013-06-09 09:33:00,82.0,15.0,-100.00,South,172,3.0,7.0,8,-99.99,,,-99.99,,2013-06-09 16:33:00,
2013-06-09 09:42:00,84.0,6.0,-100.00,SSE,152,5.0,10.0,5,-99.99,,,-99.99,,2013-06-09 16:42:00,
2013-06-09 09:52:00,84.0,6.0,-100.00,SSE,152,5.0,10.0,5,-99.99,,,-99.99,,2013-06-09 16:52:00,
2013-06-09 10:02:00,84.0,6.0,-100.00,SSE,152,5.0,10.0,5,-99.99,,,-99.99,,2013-06-09 17:02:00,
2013-06-09 10:12:00,84.0,13.0,-100.00,SW,224,4.0,10.0,7,-99.99,,,-99.99,,2013-06-09 17:12:00,
2013-06-09 10:22:00,81.0,33.0,-100.00,West,264,7.0,12.0,18,-99.99,,,-99.99,,2013-06-09 17:22:00,
2013-06-09 10:32:00,81.0,31.0,-100.00,West,267,7.0,11.0,16,-99.99,,,-99.99,,2013-06-09 17:32:00,
2013-06-09 10:42:00,82.0,26.0,-100.00,West,267,6.0,10.0,13,-99.99,,,-99.99,,2013-06-09 17:42:00,
2013-06-09 10:52:00,82.0,26.0,-100.00,West,267,6.0,10.0,13,-99.99,,,-99.99,,2013-06-09 17:52:00,
2013-06-09 11:02:00,80.0,21.0,-100.00,West,268,7.0,12.0,11,-99.99,,,-99.99,,2013-06-09 18:02:00,
2013-06-09 11:11:00,80.0,23.0,-100.00,West,272,7.0,11.0,12,-99.99,,,-99.99,,2013-06-09 18:11:00,
2013-06-09 11:21:00,80.0,23.0,-100.00,West,277,6.0,11.0,12,-99.99,,,-99.99,,2013-06-09 18:21:00,
2013-06-09 11:32:00,80.0,27.0,-100.00,West,276,6.0,9.0,14,-99.99,,,-99.99,,2013-06-09 18:32:00,
2013-06-09 11:42:00,81.0,26.0,-100.00,WNW,296,5.0,11.0,13,-99.99,,,-99.99,,2013-06-09 18:42:00,
2013-06-09 11:52:00,81.0,26.0,-100.00,WNW,296,5.0,11.0,13,-99.99,,,-99.99,,2013-06-09 18:52:00,
2013-06-09 12:02:00,84.0,26.0,-100.00,SW,234,5.0,11.0,12,-99.99,,,-99.99,,2013-06-09 19:02:00,
2013-06-09 12:12:00,86.0,18.0,-100.00,SSW,202,4.0,10.0,8,-99.99,,,-99.99,,2013-06-09 19:12:00,
2013-06-09 12:21:00,86.0,21.0,-100.00,SW,230,6.0,14.0,9,-99.99,,,-99.99,,2013-06-09 19:21:00,
2013-06-09 12:32:00,85.0,25.0,-100.00,West,268,8.0,14.0,11,-99.99,,,-99.99,,2013-06-09 19:32:00,
2013-06-09 12:42:00,85.0,29.0,-100.00,West,277,8.0,15.0,13,-99.99,,,-99.99,,2013-06-09 19:42:00,
2013-06-09 12:52:00,84.0,30.0,-100.00,West,272,9.0,17.0,14,-99.99,,,-99.99,,2013-06-09 19:52:00,
2013-06-09 13:02:00,84.0,31.0,-100.00,West,266,12.0,17.0,15,-99.99,,,-99.99,,2013-06-09 20:02:00,
2013-06-09 13:12:00,83.0,31.0,-100.00,West,259,10.0,15.0,15,-99.99,,,-99.99,,2013-06-09 20:12:00,
2013-06-09 13:22:00,84.0,31.0,-100.00,West,269,9.0,19.0,15,-99.99,,,-99.99,,2013-06-09 20:22:00,
2013-06-09 13:32:00,84.0,30.0,-100.00,West,263,9.0,15.0,14,-99.99,,,-99.99,,2013-06-09 20:32:00,
2013-06-09 13:42:00,84.0,28.0,-100.00,West,262,10.0,17.0,13,-99.99,,,-99.99,,2013-06-09 20:42:00,
2013-06-09 13:52:00,85.0,29.0,-100.00,WSW,249,7.0,15.0,13,-99.99,,,-99.99,,2013-06-09 20:52:00,
2013-06-09 14:02:00,84.0,31.0,-100.00,West,263,9.0,16.0,15,-99.99,,,-99.99,,2013-06-09 21:02:00,
2013-06-09 14:12:00,84.0,24.0,-100.00,WSW,253,10.0,16.0,11,-99.99,,,-99.99,,2013-06-09 21:12:00,
2013-06-09 14:21:00,84.0,24.0,-100.00,WSW,245,8.0,15.0,11,-99.99,,,-99.99,,2013-06-09 21:21:00,
2013-06-09 14:33:00,84.0,24.0,-100.00,WSW,257,8.0,15.0,11,-99.99,,,-99.99,,2013-06-09 21:33:00,
2013-06-09 14:43:00,84.0,26.0,-100.00,WSW,244,9.0,15.0,12,-99.99,,,-99.99,,2013-06-09 21:43:00,
2013-06-09 14:53:00,83.0,25.0,-100.00,WSW,242,9.0,17.0,12,-99.99,,,-99.99,,2013-06-09 21:53:00,
2013-06-09 15:02:00,84.0,26.0,-100.00,WSW,251,8.0,15.0,12,-99.99,,,-99.99,,2013-06-09 22:02:00,
2013-06-09 15:12:00,85.0,27.0,-100.00,WSW,249,8.0,16.0,12,-99.99,,,-99.99,,2013-06-09 22:12:00,
2013-06-09 15:22:00,84.0,33.0,-100.00,West,269,8.0,17.0,16,-99.99,,,-99.99,,2013-06-09 22:22:00,
2013-06-09 15:33:00,84.0,31.0,-100.00,WSW,251,8.0,14.0,15,-99.99,,,-99.99,,2013-06-09 22:33:00,
2013-06-09 15:42:00,84.0,33.0,-100.00,West,266,8.0,14.0,16,-99.99,,,-99.99,,2013-06-09 22:42:00,
2013-06-09 15:52:00,84.0,33.0,-100.00,West,266,8.0,14.0,16,-99.99,,,-99.99,,2013-06-09 22:52:00,
2013-06-09 16:02:00,81.0,32.0,-100.00,WSW,247,8.0,15.0,17,-99.99,,,-99.99,,2013-06-09 23:02:00,
2013-06-09 16:12:00,81.0,27.0,-100.00,WSW,240,9.0,14.0,14,-99.99,,,-99.99,,2013-06-09 23:12:00,
2013-06-09 16:22:00,80.0,25.0,-100.00,SW,232,7.0,14.0,13,-99.99,,,-99.99,,2013-06-09 23:22:00,
2013-06-09 16:32:00,81.0,24.0,-100.00,SW,219,6.0,12.0,12,-99.99,,,-99.99,,2013-06-09 23:32:00,
2013-06-09 16:42:00,82.0,34.0,-100.00,WSW,252,6.0,11.0,18,-99.99,,,-99.99,,2013-06-09 23:42:00,
2013-06-09 16:52:00,82.0,36.0,-100.00,West,267,6.0,10.0,19,-99.99,,,-99.99,,2013-06-09 23:52:00,
2013-06-09 17:02:00,82.0,30.0,-100.00,WSW,249,8.0,13.0,15,-99.99,,,-99.99,,2013-06-10 00:02:00,
2013-06-09 17:12:00,82.0,24.0,-100.00,WSW,246,8.0,14.0,12,-99.99,,,-99.99,,2013-06-10 00:12:00,
2013-06-09 17:22:00,82.0,24.0,-100.00,WSW,249,7.0,15.0,12,-99.99,,,-99.99,,2013-06-10 00:22:00,
2013-06-09 17:32:00,82.0,22.0,-100.00,WSW,239,7.0,13.0,11,-99.99,,,-99.99,,2013-06-10 00:32:00,
2013-06-09 17:42:00,82.0,24.0,-100.00,WSW,239,7.0,14.0,12,-99.99,,,-99.99,,2013-06-10 00:42:00,
2013-06-09 17:52:00,82.0,24.0,-100.00,WSW,239,7.0,14.0,12,-99.99,,,-99.99,,2013-06-10 00:52:00,
2013-06-09 18:02:00,82.0,24.0,-100.00,SW,236,6.0,11.0,12,-99.99,,,-99.99,,2013-06-10 01:02:00,
2013-06-09 18:12:00,81.0,24.0,-100.00,WSW,250,7.0,11.0,12,-99.99,,,-99.99,,2013-06-10 01:12:00,
2013-06-09 18:22:00,81.0,26.0,-100.00,SW,236,5.0,10.0,13,-99.99,,,-99.99,,2013-06-10 01:22:00,
2013-06-09 18:32:00,80.0,25.0,-100.00,WSW,255,6.0,10.0,13,-99.99,,,-99.99,,2013-06-10 01:32:00,
2013-06-09 18:42:00,81.0,26.0,-100.00,WSW,248,5.0,10.0,13,-99.99,,,-99.99,,2013-06-10 01:42:00,
2013-06-09 18:52:00,80.0,27.0,-100.00,West,264,5.0,10.0,14,-99.99,,,-99.99,,2013-06-10 01:52:00,
2013-06-09 19:02:00,79.0,27.0,-100.00,West,270,4.0,8.0,15,-99.99,,,-99.99,,2013-06-10 02:02:00,
2013-06-09 19:12:00,79.0,30.0,-100.00,West,265,5.0,8.0,17,-99.99,,,-99.99,,2013-06-10 02:12:00,
2013-06-09 19:22:00,78.0,34.0,-100.00,West,262,5.0,10.0,20,-99.99,,,-99.99,,2013-06-10 02:22:00,
2013-06-09 19:32:00,78.0,37.0,-100.00,WSW,237,3.0,6.0,23,-99.99,,,-99.99,,2013-06-10 02:32:00,
2013-06-09 19:42:00,78.0,38.0,-100.00,WSW,245,4.0,6.0,24,-99.99,,,-99.99,,2013-06-10 02:42:00,
2013-06-09 19:52:00,78.0,38.0,-100.00,WSW,245,4.0,6.0,24,-99.99,,,-99.99,,2013-06-10 02:52:00,
2013-06-09 20:02:00,75.0,40.0,-100.00,WSW,251,3.0,5.0,28,-99.99,,,-99.99,,2013-06-10 03:02:00,
2013-06-09 20:12:00,75.0,34.0,-100.00,SW,214,2.0,4.0,22,-99.99,,,-99.99,,2013-06-10 03:12:00,
2013-06-09 20:21:00,75.0,34.0,-100.00,SW,226,1.0,3.0,22,-99.99,,,-99.99,,2013-06-10 03:21:00,
2013-06-09 20:33:00,73.0,38.0,-100.00,SW,217,0.0,1.0,28,-99.99,,,-99.99,,2013-06-10 03:33:00,
2013-06-09 20:43:00,72.0,35.0,-100.00,ESE,112,1.0,2.0,26,-99.99,,,-99.99,,2013-06-10 03:43:00,
2013-06-09 20:53:00,70.0,34.0,-100.00,ESE,116,1.0,2.0,27,-99.99,,,-99.99,,2013-06-10 03:53:00,
2013-06-09 21:03:00,69.0,35.0,-100.00,East,93,1.0,2.0,28,-99.99,,,-99.99,,2013-06-10 04:03:00,
2013-06-09 21:12:00,68.0,35.0,-100.00,East,96,2.0,2.0,30,-99.99,,,-99.99,,2013-06-10 04:12:00,
2013-06-09 21:23:00,68.0,36.0,-100.00,East,80,1.0,2.0,31,-99.99,,,-99.99,,2013-06-10 04:23:00,
2013-06-09 21:30:00,63.0,36.0,-100.00,East,89,1.0,2.0,37,-99.99,,,-99.99,,2013-06-10 04:30:00,
2013-06-09 21:33:00,66.0,34.0,-100.00,South,174,1.0,2.0,31,-99.99,,,-99.99,,2013-06-10 04:33:00,
2013-06-09 21:42:00,63.0,35.0,-100.00,SE,141,2.0,3.0,35,-99.99,,,-99.99,,2013-06-10 04:42:00,
2013-06-09 21:52:00,63.0,36.0,-100.00,East,89,1.0,2.0,37,-99.99,,,-99.99,,2013-06-10 04:52:00,
2013-06-09 22:02:00,63.0,36.0,-100.00,East,89,1.0,2.0,37,-99.99,,,-99.99,,2013-06-10 05:02:00,
2013-06-09 22:12:00,63.0,36.0,-100.00,East,89,1.0,2.0,37,-99.99,,,-99.99,,2013-06-10 05:12:00,
2013-06-09 22:22:00,63.0,36.0,-100.00,East,89,1.0,2.0,37,-99.99,,,-99.99,,2013-06-10 05:22:00,